Time;durP1;ratioP1;P1;durP2;ratioP2;P2;SDS_P1;SDS_P2;PMS_P1;PMS_P2;Temp;Humidity;BMP_temperature;BMP_pressure;BME280_temperature;BME280_humidity;BME280_pressure;Samples;Min_cycle;Max_cycle;Signal;HPM_P1;HPM_P2
2022/04/20 00:00:22;;;;;;;5.93;3.88;;;7.60;99.90;;;;;;4956972;29;20122;-76
2022/04/20 00:02:47;;;;;;;10.27;4.90;;;7.50;99.90;;;;;;4957302;28;20054;-76
2022/04/20 00:05:13;;;;;;;7.13;4.25;;;7.50;99.90;;;;;;4956128;29;20048;-74
2022/04/20 00:07:39;;;;;;;6.35;4.30;;;7.40;99.90;;;;;;4955975;29;20488;-78
2022/04/20 00:10:05;;;;;;;7.75;4.68;;;7.30;99.90;;;;;;4962719;28;20065;-77
2022/04/20 00:12:30;;;;;;;7.20;4.50;;;7.30;99.90;;;;;;4972676;28;20043;-76
2022/04/20 00:14:56;;;;;;;7.55;4.95;;;7.30;99.90;;;;;;4956926;28;20519;-76
2022/04/20 00:17:22;;;;;;;8.93;4.75;;;7.20;99.90;;;;;;4956911;28;20423;-75
2022/04/20 00:19:48;;;;;;;6.88;4.43;;;7.20;99.90;;;;;;4956290;28;20078;-74
2022/04/20 00:22:13;;;;;;;7.43;4.53;;;7.20;99.90;;;;;;4955823;29;20051;-76
2022/04/20 00:24:39;;;;;;;8.50;4.50;;;7.20;99.90;;;;;;4955641;29;20055;-76
2022/04/20 00:27:04;;;;;;;9.48;5.10;;;7.10;99.90;;;;;;4963855;28;20069;-75
2022/04/20 00:29:30;;;;;;;8.93;4.80;;;7.00;99.90;;;;;;4976568;28;20144;-76
2022/04/20 00:31:56;;;;;;;10.63;5.18;;;7.10;99.90;;;;;;4975753;28;20408;-75
2022/04/20 00:34:22;;;;;;;9.23;4.85;;;7.00;99.90;;;;;;4975303;28;20077;-76
2022/04/20 00:36:52;;;;;;;8.65;4.82;;;7.00;99.90;;;;;;4976168;28;20051;-75
2022/04/20 00:39:17;;;;;;;11.88;5.00;;;7.00;99.90;;;;;;4979694;28;20034;-75
2022/04/20 00:41:44;;;;;;;6.35;4.63;;;7.00;99.90;;;;;;4995432;28;20442;-76
2022/04/20 00:44:10;;;;;;;10.13;5.15;;;7.00;99.90;;;;;;4995144;28;20046;-76
2022/04/20 00:46:37;;;;;;;8.98;4.93;;;6.90;99.90;;;;;;4995291;28;20038;-75
2022/04/20 00:49:04;;;;;;;8.13;5.13;;;6.90;99.90;;;;;;4995334;28;20042;-75
2022/04/20 00:51:30;;;;;;;7.70;4.82;;;6.90;99.90;;;;;;4962194;28;20111;-75
2022/04/20 00:54:00;;;;;;;8.57;5.20;;;6.90;99.90;;;;;;4977805;28;20066;-75
2022/04/20 00:56:27;;;;;;;7.40;4.78;;;6.80;99.90;;;;;;4978301;28;20601;-76
2022/04/20 00:58:53;;;;;;;9.57;4.80;;;6.80;99.90;;;;;;4980582;28;20112;-75
2022/04/20 01:01:19;;;;;;;9.57;5.28;;;6.80;99.90;;;;;;4981904;28;20156;-75
2022/04/20 01:03:45;;;;;;;11.50;5.97;;;6.70;99.90;;;;;;4998661;28;20057;-76
2022/04/20 01:06:11;;;;;;;8.40;4.72;;;6.70;99.90;;;;;;4999038;28;20046;-75
2022/04/20 01:08:36;;;;;;;8.80;5.28;;;6.70;99.90;;;;;;4999037;28;20069;-75
2022/04/20 01:11:02;;;;;;;9.65;4.70;;;6.70;99.90;;;;;;4998676;28;20046;-76
2022/04/20 01:13:28;;;;;;;9.48;4.97;;;6.60;99.90;;;;;;4982422;28;20375;-75
2022/04/20 01:15:54;;;;;;;11.75;5.13;;;6.60;99.90;;;;;;4998701;28;20110;-76
2022/04/20 01:18:20;;;;;;;6.60;4.45;;;6.50;99.90;;;;;;4998907;28;20116;-76
2022/04/20 01:20:46;;;;;;;8.40;5.07;;;6.50;99.90;;;;;;4998707;28;20050;-75
2022/04/20 01:23:12;;;;;;;9.18;5.00;;;6.40;99.90;;;;;;4998312;28;20137;-76
2022/04/20 01:25:38;;;;;;;8.70;4.63;;;6.40;99.90;;;;;;4998475;28;20047;-75
2022/04/20 01:28:04;;;;;;;9.23;5.10;;;6.30;99.90;;;;;;4998671;28;20050;-75
2022/04/20 01:30:30;;;;;;;9.70;5.63;;;6.30;99.90;;;;;;4981462;28;20073;-76
2022/04/20 01:32:56;;;;;;;9.68;5.60;;;6.30;99.90;;;;;;4981098;28;20050;-75
2022/04/20 01:35:22;;;;;;;8.38;5.45;;;6.20;99.90;;;;;;4998133;28;20093;-76
2022/04/20 01:37:52;;;;;;;7.75;5.13;;;6.20;99.90;;;;;;4981074;28;20451;-75
2022/04/20 01:40:18;;;;;;;10.98;5.47;;;6.10;99.90;;;;;;4997887;28;20470;-75
2022/04/20 01:42:44;;;;;;;8.15;5.32;;;6.10;99.90;;;;;;4998024;28;20530;-76
2022/04/20 01:45:10;;;;;;;7.22;4.75;;;6.10;99.90;;;;;;4981049;28;20162;-76
2022/04/20 01:47:35;;;;;;;10.82;5.13;;;6.00;99.90;;;;;;4978172;28;20047;-76
2022/04/20 01:50:01;;;;;;;11.77;5.05;;;6.00;99.90;;;;;;4998053;28;20054;-75
2022/04/20 01:52:26;;;;;;;9.02;4.82;;;5.90;99.90;;;;;;4980927;28;20455;-75
2022/04/20 01:54:52;;;;;;;8.82;5.30;;;5.90;99.90;;;;;;4998025;28;20363;-76
2022/04/20 01:57:18;;;;;;;9.45;5.38;;;5.90;99.90;;;;;;4980425;28;20363;-76
2022/04/20 01:59:43;;;;;;;8.07;5.43;;;5.90;99.90;;;;;;4980596;28;20449;-76
2022/04/20 02:04:53;;;;;;;8.80;5.20;;;5.80;99.90;;;;;;4997732;28;20054;-76
2022/04/20 02:07:18;;;;;;;8.85;5.30;;;5.70;99.90;;;;;;4997755;28;20362;-76
2022/04/20 02:09:44;;;;;;;10.02;5.28;;;5.70;99.90;;;;;;4996961;28;20089;-76
2022/04/20 02:12:09;;;;;;;10.30;5.45;;;5.60;99.90;;;;;;4998061;28;20112;-76
2022/04/20 02:14:35;;;;;;;11.45;5.63;;;5.60;99.90;;;;;;4997933;28;20050;-75
2022/04/20 02:17:01;;;;;;;9.60;5.40;;;5.60;99.90;;;;;;4980381;28;20378;-75
2022/04/20 02:19:26;;;;;;;12.02;5.85;;;5.60;99.90;;;;;;4997641;28;20049;-76
2022/04/20 02:21:52;;;;;;;11.93;5.82;;;5.50;99.90;;;;;;4997447;28;20034;-76
2022/04/20 02:24:17;;;;;;;11.80;5.80;;;5.50;99.90;;;;;;4979988;28;20104;-76
2022/04/20 02:26:43;;;;;;;9.05;5.90;;;5.80;99.90;;;;;;4980170;28;20069;-76
2022/04/20 02:29:09;;;;;;;10.00;5.10;;;5.50;99.90;;;;;;4979566;28;20111;-75
2022/04/20 02:31:34;;;;;;;11.85;6.20;;;5.40;99.90;;;;;;4997484;28;20058;-75
2022/04/20 02:34:00;;;;;;;11.00;5.53;;;5.40;99.90;;;;;;4997278;28;20182;-75
2022/04/20 02:36:27;;;;;;;9.90;5.50;;;5.40;99.90;;;;;;4963908;28;20130;-76
2022/04/20 02:38:53;;;;;;;8.70;5.72;;;5.40;99.90;;;;;;4980166;28;20049;-75
2022/04/20 02:41:19;;;;;;;8.10;5.50;;;5.40;99.90;;;;;;4997093;28;20162;-76
2022/04/20 02:43:44;;;;;;;10.23;5.70;;;5.40;99.90;;;;;;4996088;28;20070;-77
2022/04/20 02:46:11;;;;;;;10.18;5.47;;;5.40;99.90;;;;;;4997201;28;20053;-76
2022/04/20 02:48:36;;;;;;;12.95;6.22;;;5.40;99.90;;;;;;4997186;28;20050;-75
2022/04/20 02:51:02;;;;;;;8.93;5.70;;;5.50;99.90;;;;;;4996864;28;20474;-77
2022/04/20 02:53:28;;;;;;;10.63;5.20;;;5.40;99.90;;;;;;4997256;28;20096;-75
2022/04/20 02:55:53;;;;;;;8.70;5.50;;;5.40;99.90;;;;;;4963674;28;20046;-75
2022/04/20 02:58:19;;;;;;;11.63;6.20;;;5.40;99.90;;;;;;4993581;28;20419;-76
2022/04/20 03:00:45;;;;;;;11.07;5.85;;;5.40;99.90;;;;;;4997717;28;20062;-76
2022/04/20 03:03:12;;;;;;;10.75;6.28;;;5.40;99.90;;;;;;4996977;28;20117;-76
2022/04/20 03:05:38;;;;;;;11.15;6.03;;;5.40;99.90;;;;;;4978654;28;20464;-75
2022/04/20 03:08:04;;;;;;;11.60;6.07;;;5.40;99.90;;;;;;4996796;28;20058;-76
2022/04/20 03:10:29;;;;;;;8.35;5.90;;;5.40;99.90;;;;;;4979734;28;20073;-75
2022/04/20 03:12:55;;;;;;;7.45;5.22;;;5.30;99.90;;;;;;4996788;28;20117;-76
2022/04/20 03:15:20;;;;;;;10.27;5.75;;;5.30;99.90;;;;;;4979328;28;20046;-74
2022/04/20 03:17:46;;;;;;;10.75;6.10;;;5.30;99.90;;;;;;4979215;28;20073;-77
2022/04/20 03:20:12;;;;;;;13.55;6.22;;;5.30;99.90;;;;;;4996730;28;20129;-75
2022/04/20 03:22:38;;;;;;;9.80;5.57;;;5.20;99.90;;;;;;4996400;28;20042;-77
2022/04/20 03:25:04;;;;;;;8.43;5.50;;;5.20;99.90;;;;;;4996375;28;20112;-75
2022/04/20 03:27:30;;;;;;;8.80;5.75;;;5.20;99.90;;;;;;4996069;28;20121;-76
2022/04/20 03:29:55;;;;;;;9.70;6.10;;;5.30;99.90;;;;;;4979122;28;20494;-77
2022/04/20 03:32:21;;;;;;;13.40;5.65;;;5.20;99.90;;;;;;4996385;28;20039;-76
2022/04/20 03:34:47;;;;;;;9.75;5.80;;;5.20;99.90;;;;;;4979604;28;20097;-78
2022/04/20 03:37:12;;;;;;;10.55;5.97;;;5.20;99.90;;;;;;4996128;28;20113;-76
2022/04/20 03:39:38;;;;;;;7.40;5.30;;;5.10;99.90;;;;;;4996172;28;20046;-75
2022/04/20 03:42:04;;;;;;;12.50;6.25;;;5.10;99.90;;;;;;4978837;28;20046;-76
2022/04/20 03:44:31;;;;;;;9.38;6.10;;;5.10;99.90;;;;;;4978719;28;20138;-76
2022/04/20 03:46:57;;;;;;;8.45;5.43;;;5.10;99.90;;;;;;4996203;28;20395;-77
2022/04/20 03:49:23;;;;;;;7.85;5.75;;;5.10;99.90;;;;;;4996210;28;20085;-76
2022/04/20 03:51:49;;;;;;;8.90;5.45;;;5.10;99.90;;;;;;4979569;28;20058;-75
2022/04/20 03:54:14;;;;;;;12.68;5.70;;;5.00;99.90;;;;;;4995802;28;20120;-75
2022/04/20 03:59:26;;;;;;;10.55;6.32;;;5.10;99.90;;;;;;5004223;28;20054;-74
2022/04/20 04:01:51;;;;;;;8.43;5.72;;;5.00;99.90;;;;;;4932363;29;20122;-76
2022/04/20 04:04:18;;;;;;;9.30;5.38;;;5.00;99.90;;;;;;4939868;29;20052;-76
2022/04/20 04:06:44;;;;;;;10.40;6.10;;;5.00;99.90;;;;;;4935461;29;20048;-74
2022/04/20 04:09:09;;;;;;;8.68;5.75;;;5.00;99.90;;;;;;4934642;29;20573;-73
2022/04/20 04:11:35;;;;;;;9.90;5.90;;;5.00;99.90;;;;;;4935885;29;20070;-75
2022/04/20 04:14:01;;;;;;;12.43;5.82;;;5.10;99.90;;;;;;4935950;29;20449;-74
2022/04/20 04:16:27;;;;;;;9.35;6.03;;;5.10;99.90;;;;;;4934944;29;20415;-75
2022/04/20 04:18:52;;;;;;;9.77;5.85;;;5.10;99.90;;;;;;4919554;29;20048;-74
2022/04/20 04:21:18;;;;;;;8.27;5.93;;;5.10;99.90;;;;;;4935841;29;20056;-75
2022/04/20 04:23:43;;;;;;;7.60;5.60;;;5.20;99.90;;;;;;4935470;29;20449;-74
2022/04/20 04:26:09;;;;;;;10.32;5.63;;;5.00;99.90;;;;;;4935060;29;20496;-74
2022/04/20 04:28:35;;;;;;;9.80;5.60;;;5.00;99.90;;;;;;4935618;29;20063;-74
2022/04/20 04:31:01;;;;;;;8.48;5.30;;;5.10;99.90;;;;;;4919257;29;20118;-75
2022/04/20 04:33:26;;;;;;;8.57;5.45;;;5.10;99.90;;;;;;4968449;28;20082;-75
2022/04/20 04:35:52;;;;;;;10.48;6.13;;;5.10;99.90;;;;;;4962547;28;20132;-74
2022/04/20 04:38:17;;;;;;;9.63;5.30;;;5.10;99.90;;;;;;4963524;28;20498;-75
2022/04/20 04:40:43;;;;;;;11.73;5.53;;;5.40;99.90;;;;;;4963421;28;20486;-75
2022/04/20 04:43:08;;;;;;;8.95;5.50;;;5.10;99.90;;;;;;5120113;23;20084;-72
2022/04/20 04:48:36;;;;;;;8.68;5.95;;;5.10;99.90;;;;;;5038290;28;20453;-72
2022/04/20 04:51:02;;;;;;;;;;;5.10;99.90;;;;;;5038194;28;20068;-74
2022/04/20 04:53:28;;;;;;;9.20;5.38;;;5.10;99.90;;;;;;5037530;28;20004;-74
2022/04/20 04:55:54;;;;;;;7.10;5.22;;;5.10;99.90;;;;;;5038249;28;20124;-73
2022/04/20 04:58:19;;;;;;;7.70;5.38;;;5.10;99.90;;;;;;5038659;28;20057;-72
2022/04/20 05:00:45;;;;;;;7.43;4.88;;;5.20;99.90;;;;;;5038766;28;20125;-71
2022/04/20 05:03:13;;;;;;;9.00;5.28;;;5.20;99.90;;;;;;5038301;28;20442;-70
2022/04/20 05:05:40;;;;;;;9.68;6.13;;;5.30;99.90;;;;;;5038334;28;20172;-72
2022/04/20 05:08:06;;;;;;;9.25;5.45;;;5.40;99.90;;;;;;5037229;28;20045;-74
2022/04/20 05:10:31;;;;;;;8.10;5.40;;;5.50;99.90;;;;;;5036881;28;20485;-73
2022/04/20 05:12:58;;;;;;;11.73;5.75;;;5.50;99.90;;;;;;5037727;28;20109;-74
2022/04/20 05:15:23;;;;;;;10.40;5.25;;;5.50;99.90;;;;;;5037841;28;20046;-73
2022/04/20 05:17:49;;;;;;;7.03;5.28;;;5.60;99.90;;;;;;5038255;28;20049;-73
2022/04/20 05:20:15;;;;;;;8.07;5.28;;;5.60;99.90;;;;;;5026864;28;20042;-73
2022/04/20 05:22:40;;;;;;;9.05;5.43;;;5.60;99.90;;;;;;5032851;28;20128;-73
2022/04/20 05:25:07;;;;;;;7.05;4.93;;;5.70;99.90;;;;;;5028472;28;20432;-73
2022/04/20 05:27:32;;;;;;;7.28;4.65;;;5.70;99.90;;;;;;5000061;28;20060;-75
2022/04/20 05:29:59;;;;;;;8.18;5.40;;;5.80;99.90;;;;;;5015727;28;20128;-74
2022/04/20 05:32:25;;;;;;;9.15;5.20;;;5.80;99.90;;;;;;5025238;28;20092;-74
2022/04/20 05:34:50;;;;;;;7.47;5.50;;;5.90;99.90;;;;;;5017749;28;20104;-74
2022/04/20 05:42:46;;;;;;;9.65;5.78;;;6.20;99.90;;;;;;5031572;28;20061;-75
2022/04/20 05:45:11;;;;;;;8.05;5.18;;;6.60;99.90;;;;;;5021802;28;20112;-75
2022/04/20 05:47:38;;;;;;;9.38;5.15;;;7.10;99.90;;;;;;5038662;28;20041;-73
2022/04/20 05:50:05;;;;;;;8.55;5.20;;;7.50;99.90;;;;;;5057295;28;20076;-72
2022/04/20 05:52:30;;;;;;;6.75;5.10;;;8.30;99.90;;;;;;5051059;28;20094;-75
2022/04/20 05:54:57;;;;;;;9.32;5.00;;;9.20;99.90;;;;;;5039412;28;20515;-74
2022/04/20 05:57:23;;;;;;;11.07;4.95;;;10.40;99.90;;;;;;5053936;28;20057;-75
2022/04/20 05:59:49;;;;;;;7.80;4.95;;;11.50;99.90;;;;;;5056817;28;20045;-74
2022/04/20 06:02:15;;;;;;;16.05;4.72;;;12.50;99.90;;;;;;5049364;28;20465;-75
2022/04/20 06:04:40;;;;;;;10.00;4.60;;;12.80;99.90;;;;;;5056595;28;20140;-77
2022/04/20 06:07:06;;;;;;;5.72;4.47;;;13.50;99.90;;;;;;5043125;28;20041;-75
2022/04/20 06:09:32;;;;;;;8.45;4.50;;;13.40;99.90;;;;;;5034215;28;20076;-75
2022/04/20 06:11:58;;;;;;;7.65;4.25;;;14.20;99.90;;;;;;5056607;28;20045;-75
2022/04/20 06:14:24;;;;;;;6.05;3.70;;;14.60;99.90;;;;;;5042363;28;20466;-75
2022/04/20 06:16:50;;;;;;;5.90;3.95;;;14.80;99.90;;;;;;5050175;28;20179;-76
2022/04/20 06:19:17;;;;;;;7.50;4.30;;;15.40;99.90;;;;;;5015237;28;20462;-76
2022/04/20 06:21:42;;;;;;;6.22;4.28;;;15.80;99.80;;;;;;5044726;28;20103;-75
2022/04/20 06:24:08;;;;;;;6.80;3.80;;;16.40;99.60;;;;;;5056327;28;20048;-75
2022/04/20 06:26:34;;;;;;;5.22;3.50;;;16.50;98.50;;;;;;5028495;28;20045;-77
2022/04/20 06:28:59;;;;;;;7.47;4.20;;;17.00;97.80;;;;;;5009375;28;20120;-75
2022/04/20 06:31:25;;;;;;;14.40;4.90;;;17.40;96.10;;;;;;5033230;28;20037;-76
2022/04/20 06:33:52;;;;;;;10.02;4.55;;;17.00;95.30;;;;;;5028390;28;20060;-76
2022/04/20 06:36:17;;;;;;;8.77;4.40;;;17.30;95.70;;;;;;5040354;28;20057;-76
2022/04/20 06:38:43;;;;;;;7.78;4.10;;;18.00;92.90;;;;;;5056547;28;20069;-75
2022/04/20 06:41:08;;;;;;;8.90;4.63;;;17.60;92.50;;;;;;5045606;28;20041;-76
2022/04/20 06:43:35;;;;;;;9.93;4.55;;;17.30;92.60;;;;;;5055452;28;20048;-77
2022/04/20 06:46:01;;;;;;;6.38;4.15;;;17.40;93.60;;;;;;5038183;28;20056;-75
2022/04/20 06:48:27;;;;;;;7.45;4.30;;;17.80;93.10;;;;;;5047415;28;20425;-77
2022/04/20 06:50:53;;;;;;;8.52;5.18;;;17.80;91.30;;;;;;5052678;28;20123;-76
2022/04/20 06:58:48;;;;;;;6.32;4.45;;;15.10;92.90;;;;;;5047455;28;20496;-78
2022/04/20 07:01:15;;;;;;;6.72;4.38;;;13.90;94.80;;;;;;5026873;28;20125;-75
2022/04/20 07:03:41;;;;;;;8.23;4.80;;;13.30;96.00;;;;;;5039973;28;20053;-74
2022/04/20 07:06:07;;;;;;;11.15;5.03;;;12.80;97.20;;;;;;5037472;28;20060;-75
2022/04/20 07:08:34;;;;;;;6.88;4.15;;;12.40;98.00;;;;;;5034008;28;20049;-76
2022/04/20 07:11:00;;;;;;;9.52;5.00;;;12.30;99.30;;;;;;5055543;28;20041;-75
2022/04/20 07:13:25;;;;;;;9.02;5.35;;;12.10;99.90;;;;;;5023862;28;20064;-75
2022/04/20 07:15:51;;;;;;;7.28;4.90;;;11.80;99.90;;;;;;5044697;28;20045;-75
2022/04/20 07:18:17;;;;;;;7.35;4.95;;;11.40;99.90;;;;;;5054761;28;20120;-75
2022/04/20 07:20:43;;;;;;;8.93;4.80;;;11.30;99.90;;;;;;5035467;28;20048;-71
2022/04/20 07:23:10;;;;;;;8.77;4.90;;;11.30;99.90;;;;;;5051134;28;20037;-75
2022/04/20 07:25:36;;;;;;;7.10;4.60;;;11.20;99.90;;;;;;5036800;28;20064;-77
2022/04/20 07:28:03;;;;;;;7.75;4.60;;;11.20;99.90;;;;;;5055444;28;20045;-76
2022/04/20 07:30:28;;;;;;;6.18;4.38;;;11.30;99.90;;;;;;5028292;28;20049;-75
2022/04/20 07:32:54;;;;;;;12.40;4.35;;;11.30;99.70;;;;;;5039881;28;20059;-74
2022/04/20 07:35:19;;;;;;;6.47;3.80;;;11.40;99.90;;;;;;5033095;28;20034;-72
2022/04/20 07:37:45;;;;;;;9.57;3.67;;;11.50;98.90;;;;;;5026478;28;20052;-74
2022/04/20 07:40:12;;;;;;;6.72;3.60;;;11.40;98.50;;;;;;5042949;28;20052;-74
2022/04/20 07:42:38;;;;;;;10.88;4.05;;;11.50;99.00;;;;;;5044073;28;20056;-74
2022/04/20 07:45:05;;;;;;;7.13;3.50;;;11.60;99.10;;;;;;5044095;28;20509;-76
2022/04/20 07:47:30;;;;;;;6.75;3.83;;;11.60;98.30;;;;;;5045744;28;20088;-75
2022/04/20 07:52:48;;;;;;;6.35;3.63;;;11.80;98.10;;;;;;5054947;28;20426;-75
2022/04/20 07:55:23;;;;;;;8.30;3.50;;;11.90;98.60;;;;;;5052116;28;20045;-73
2022/04/20 07:57:51;;;;;;;9.15;3.63;;;12.00;98.20;;;;;;5054462;28;20557;-74
2022/04/20 08:00:18;;;;;;;6.68;3.45;;;12.10;97.60;;;;;;5040478;28;20044;-74
2022/04/20 08:02:44;;;;;;;7.05;3.22;;;12.20;97.80;;;;;;5042874;28;20056;-75
2022/04/20 08:05:12;;;;;;;7.57;3.00;;;12.30;97.90;;;;;;5054923;28;20036;-74
2022/04/20 08:07:38;;;;;;;6.90;3.00;;;12.40;96.10;;;;;;5054137;28;20106;-75
2022/04/20 08:10:08;;;;;;;6.90;2.55;;;12.90;96.20;;;;;;5033583;28;20052;-75
2022/04/20 08:12:39;;;;;;;6.43;3.17;;;13.90;93.00;;;;;;5036214;28;20049;-75
2022/04/20 08:15:06;;;;;;;6.47;3.08;;;14.70;91.50;;;;;;5024523;28;20037;-73
2022/04/20 08:17:32;;;;;;;4.57;2.65;;;15.60;90.90;;;;;;5044143;28;20072;-73
2022/04/20 08:19:58;;;;;;;4.18;2.58;;;16.10;88.90;;;;;;5043954;28;20764;-74
2022/04/20 08:22:24;;;;;;;4.78;2.55;;;16.70;86.40;;;;;;5032735;28;20112;-74
2022/04/20 08:24:50;;;;;;;3.67;2.40;;;17.30;83.30;;;;;;5050406;28;20044;-71
2022/04/20 08:27:16;;;;;;;4.40;2.13;;;17.70;79.50;;;;;;5035352;28;20460;-74
2022/04/20 08:29:42;;;;;;;4.07;2.13;;;18.00;79.40;;;;;;5034574;28;20085;-74
2022/04/20 08:32:08;;;;;;;4.05;2.17;;;17.80;74.10;;;;;;5037208;28;20095;-75
2022/04/20 08:34:34;;;;;;;4.03;2.40;;;17.50;73.00;;;;;;5031476;28;20458;-76
2022/04/20 08:37:00;;;;;;;4.18;2.47;;;17.60;72.30;;;;;;5034692;28;20128;-75
2022/04/20 08:39:25;;;;;;;5.72;2.40;;;17.70;75.20;;;;;;5034757;28;20045;-76
2022/04/20 08:41:51;;;;;;;6.22;2.10;;;17.80;72.50;;;;;;5034448;28;20107;-74
2022/04/20 08:44:29;;;;;;;5.70;2.15;;;18.20;72.10;;;;;;5034928;28;20441;-74
2022/04/20 08:47:00;;;;;;;4.45;1.70;;;18.40;68.70;;;;;;5016874;28;20468;-74
2022/04/20 08:49:25;;;;;;;3.75;1.77;;;18.00;67.80;;;;;;5017766;28;20049;-76
2022/04/20 08:54:36;;;;;;;2.97;1.50;;;18.20;65.30;;;;;;5016718;28;20049;-75
2022/04/20 08:57:19;;;;;;;4.18;1.33;;;17.30;64.00;;;;;;5017338;28;20046;-74
2022/04/20 08:59:48;;;;;;;5.80;2.08;;;17.00;64.60;;;;;;5034980;28;20052;-74
2022/04/20 09:02:15;;;;;;;3.70;1.83;;;16.40;65.40;;;;;;5046832;28;20356;-76
2022/04/20 09:04:41;;;;;;;4.22;1.65;;;16.10;66.10;;;;;;5054329;28;20368;-75
2022/04/20 09:07:11;;;;;;;3.33;1.60;;;15.70;63.00;;;;;;5037297;28;20041;-76
2022/04/20 09:09:38;;;;;;;4.10;1.63;;;15.30;64.10;;;;;;5036805;28;20041;-75
2022/04/20 09:12:25;;;;;;;3.35;1.80;;;15.10;66.20;;;;;;5054484;28;20440;-76
2022/04/20 09:14:52;;;;;;;3.30;1.48;;;14.90;64.90;;;;;;5036839;28;20045;-75
2022/04/20 09:17:20;;;;;;;4.45;1.73;;;15.10;66.90;;;;;;5050921;28;20044;-75
2022/04/20 09:19:53;;;;;;;2.63;1.42;;;14.80;63.00;;;;;;5056618;28;20068;-75
2022/04/20 09:22:30;;;;;;;2.35;1.27;;;15.10;63.50;;;;;;5058599;28;20049;-75
2022/04/20 09:25:07;;;;;;;2.95;1.55;;;15.20;61.30;;;;;;5054072;28;20060;-75
2022/04/20 09:27:39;;;;;;;9.73;2.08;;;15.40;61.90;;;;;;5038059;28;20128;-74
2022/04/20 09:30:13;;;;;;;4.07;1.40;;;15.60;61.60;;;;;;5020714;28;20366;-75
2022/04/20 09:32:43;;;;;;;2.97;1.58;;;15.90;61.60;;;;;;5020372;28;20061;-75
2022/04/20 09:35:12;;;;;;;3.95;1.50;;;16.20;62.00;;;;;;5037622;28;20041;-74
2022/04/20 09:37:38;;;;;;;4.10;1.60;;;16.80;63.30;;;;;;5055116;28;20080;-76
2022/04/20 09:40:06;;;;;;;3.92;1.55;;;17.20;62.10;;;;;;5057856;28;20451;-74
2022/04/20 09:42:33;;;;;;;15.88;2.42;;;17.30;61.80;;;;;;5057467;28;20145;-75
2022/04/20 09:45:04;;;;;;;3.35;1.45;;;17.20;60.30;;;;;;5057226;28;20049;-76
2022/04/20 09:50:22;;;;;;;3.55;1.50;;;15.90;60.90;;;;;;5057693;28;20128;-75
2022/04/20 09:52:49;;;;;;;7.90;1.60;;;15.50;61.60;;;;;;5057407;28;20140;-75
2022/04/20 09:55:26;;;;;;;3.80;1.63;;;15.30;61.60;;;;;;5039670;28;20045;-75
2022/04/20 09:58:07;;;;;;;4.30;1.50;;;15.20;62.90;;;;;;5057149;28;20048;-76
2022/04/20 10:00:41;;;;;;;4.75;1.63;;;15.20;63.50;;;;;;5040003;28;20080;-74
2022/04/20 10:03:06;;;;;;;8.07;1.67;;;15.10;63.60;;;;;;5039811;28;20041;-75
2022/04/20 10:05:32;;;;;;;5.40;1.60;;;15.10;62.10;;;;;;5039585;28;20057;-75
2022/04/20 10:07:59;;;;;;;3.97;1.90;;;15.00;63.50;;;;;;5056263;28;20045;-76
2022/04/20 10:10:28;;;;;;;2.75;1.40;;;15.00;62.80;;;;;;5057271;28;20099;-76
2022/04/20 10:12:56;;;;;;;3.15;1.70;;;14.90;64.50;;;;;;5056851;28;20037;-76
2022/04/20 10:18:12;;;;;;;3.50;1.80;;;15.30;65.80;;;;;;5057006;28;20481;-74
2022/04/20 10:20:42;;;;;;;3.72;1.70;;;15.50;65.10;;;;;;5057210;28;20037;-76
2022/04/20 10:23:08;;;;;;;4.90;1.80;;;15.60;67.00;;;;;;5056724;28;20033;-75
2022/04/20 10:25:33;;;;;;;4.45;1.70;;;15.70;65.30;;;;;;5051816;28;20056;-75
2022/04/20 10:28:17;;;;;;;6.63;1.80;;;15.50;63.50;;;;;;5056837;28;20037;-75
2022/04/20 10:31:06;;;;;;;5.57;1.70;;;15.50;65.10;;;;;;5056087;28;20112;-75
2022/04/20 10:33:34;;;;;;;3.80;1.60;;;15.50;65.20;;;;;;5057021;28;20051;-75
2022/04/20 10:36:06;;;;;;;4.20;1.38;;;15.70;64.10;;;;;;5032242;28;20068;-76
2022/04/20 10:38:32;;;;;;;3.88;1.52;;;15.70;63.50;;;;;;5019593;28;20457;-76
2022/04/20 10:41:13;;;;;;;5.20;1.65;;;15.70;61.80;;;;;;5036620;28;20037;-74
2022/04/20 10:43:41;;;;;;;3.30;1.77;;;15.60;61.40;;;;;;5002341;28;20395;-74
2022/04/20 10:46:14;;;;;;;6.65;1.52;;;15.80;61.90;;;;;;5036372;28;20081;-75
2022/04/20 10:48:48;;;;;;;4.00;1.92;;;15.80;62.00;;;;;;5036392;28;20054;-75
2022/04/20 10:51:30;;;;;;;3.33;1.63;;;15.90;62.00;;;;;;5018971;28;20089;-74
2022/04/20 10:54:15;;;;;;;4.55;1.90;;;15.90;61.10;;;;;;5018865;28;20365;-75
2022/04/20 10:56:50;;;;;;;3.50;1.70;;;16.00;61.50;;;;;;5036612;28;20361;-75
2022/04/20 10:59:17;;;;;;;3.15;1.63;;;16.20;60.80;;;;;;5016234;28;20369;-75
2022/04/20 11:02:06;;;;;;;5.68;2.00;;;16.20;61.50;;;;;;5018779;28;20419;-76
2022/04/20 11:04:33;;;;;;;5.03;1.70;;;16.20;61.10;;;;;;5018591;28;20045;-76
2022/04/20 11:06:58;;;;;;;3.47;1.70;;;16.20;62.00;;;;;;5049769;28;20049;-75
2022/04/20 11:09:42;;;;;;;3.42;1.70;;;16.30;63.10;;;;;;5046402;28;20124;-75
2022/04/20 11:21:07;;;;;;;3.65;1.50;;;16.30;62.40;;;;;;5036574;28;20342;-74
2022/04/20 11:23:55;;;;;;;3.78;1.80;;;16.30;59.10;;;;;;4999574;28;20096;-75
2022/04/20 11:26:34;;;;;;;2.88;1.52;;;16.40;59.70;;;;;;5018946;28;20462;-73
2022/04/20 11:29:11;;;;;;;4.53;1.70;;;16.40;61.10;;;;;;5036044;28;20060;-75
2022/04/20 11:31:47;;;;;;;2.85;1.55;;;16.60;60.50;;;;;;5035487;28;20057;-74
2022/04/20 11:34:16;;;;;;;4.35;1.65;;;16.80;60.90;;;;;;5018603;28;20081;-74
2022/04/20 11:36:44;;;;;;;4.43;1.75;;;16.80;59.50;;;;;;5047306;28;20049;-74
2022/04/20 11:39:11;;;;;;;2.70;1.40;;;16.80;58.60;;;;;;5055621;28;20122;-74
2022/04/20 11:41:37;;;;;;;2.90;1.70;;;16.80;58.70;;;;;;5055542;28;20049;-75
2022/04/20 11:44:03;;;;;;;2.67;1.45;;;16.80;59.60;;;;;;5055169;28;20061;-75
2022/04/20 11:46:31;;;;;;;3.17;1.48;;;17.00;59.50;;;;;;5055465;28;20453;-75
2022/04/20 11:48:58;;;;;;;3.88;1.40;;;17.20;60.80;;;;;;5055175;28;20048;-74
2022/04/20 11:51:25;;;;;;;3.08;1.40;;;17.40;58.70;;;;;;5003733;28;20045;-74
2022/04/20 11:53:52;;;;;;;3.65;1.58;;;17.60;59.60;;;;;;5037716;28;20052;-74
2022/04/20 11:56:34;;;;;;;3.22;1.60;;;17.60;59.80;;;;;;5055315;28;20033;-75
2022/04/20 11:59:02;;;;;;;2.88;1.50;;;17.30;57.80;;;;;;5054680;28;20041;-74
2022/04/20 12:01:30;;;;;;;3.80;1.60;;;17.30;58.80;;;;;;5055003;28;20068;-74
2022/04/20 12:03:56;;;;;;;4.25;1.80;;;17.30;59.60;;;;;;5054935;28;20088;-74
2022/04/20 12:06:25;;;;;;;3.28;1.38;;;17.20;58.70;;;;;;5043019;28;20437;-76
2022/04/20 12:08:53;;;;;;;2.80;1.38;;;17.20;59.40;;;;;;5034903;28;20056;-74
2022/04/20 12:11:19;;;;;;;2.20;1.20;;;17.30;58.10;;;;;;5034992;28;20041;-75
2022/04/20 12:13:45;;;;;;;3.33;1.08;;;17.30;59.70;;;;;;5035265;28;20144;-75
2022/04/20 12:16:13;;;;;;;3.17;1.40;;;17.50;60.50;;;;;;5034904;28;20099;-75
2022/04/20 12:18:44;;;;;;;4.22;1.33;;;17.60;59.90;;;;;;5035095;28;20056;-75
2022/04/20 12:21:38;;;;;;;2.10;1.08;;;17.50;60.10;;;;;;5017805;28;20046;-75
2022/04/20 12:24:04;;;;;;;3.88;1.25;;;17.70;61.80;;;;;;5017321;28;20510;-75
2022/04/20 12:26:30;;;;;;;2.35;1.10;;;17.80;61.00;;;;;;5014321;28;20137;-75
2022/04/20 12:29:03;;;;;;;4.07;1.08;;;17.80;58.90;;;;;;5017346;28;20111;-75
2022/04/20 12:31:29;;;;;;;1.80;0.98;;;17.80;60.90;;;;;;5034837;28;20037;-75
2022/04/20 12:34:03;;;;;;;4.35;1.30;;;17.70;60.60;;;;;;5018063;28;20060;-74
2022/04/20 12:36:31;;;;;;;3.10;1.20;;;17.70;61.40;;;;;;5038386;28;20048;-75
2022/04/20 12:38:57;;;;;;;1.88;1.20;;;17.70;60.30;;;;;;5017703;28;20372;-74
2022/04/20 12:41:45;;;;;;;2.15;1.10;;;17.60;59.70;;;;;;5034703;28;20047;-75
2022/04/20 12:44:39;;;;;;;3.33;1.33;;;17.60;60.50;;;;;;5031896;28;20049;-75
2022/04/20 12:47:07;;;;;;;2.75;1.30;;;17.70;59.70;;;;;;5034817;28;20052;-75
2022/04/20 12:49:34;;;;;;;2.25;1.10;;;17.60;59.80;;;;;;5034544;28;20045;-74
2022/04/20 12:52:19;;;;;;;3.75;1.13;;;17.50;59.90;;;;;;5034852;28;20058;-73
2022/04/20 12:54:57;;;;;;;5.82;1.48;;;17.70;61.60;;;;;;5037207;28;20041;-74
2022/04/20 13:02:57;;;;;;;2.72;1.60;;;18.00;61.20;;;;;;5038608;28;20045;-74
2022/04/20 13:05:24;;;;;;;2.33;1.25;;;17.90;61.00;;;;;;5021472;28;20121;-74
2022/04/20 13:07:49;;;;;;;4.65;1.55;;;17.80;61.90;;;;;;5038440;28;20461;-74
2022/04/20 13:10:15;;;;;;;3.05;1.42;;;17.80;61.60;;;;;;5021193;28;20091;-74
2022/04/20 13:12:48;;;;;;;6.22;1.98;;;17.60;61.20;;;;;;5020698;28;20055;-75
2022/04/20 13:15:14;;;;;;;2.88;1.42;;;17.40;61.80;;;;;;5038264;28;20116;-74
2022/04/20 13:17:40;;;;;;;4.05;1.67;;;17.50;62.70;;;;;;5020845;28;20120;-74
2022/04/20 13:20:07;;;;;;;3.50;1.80;;;17.50;63.50;;;;;;5037889;28;20085;-75
2022/04/20 13:22:33;;;;;;;3.28;1.70;;;17.60;64.60;;;;;;5037951;28;20049;-74
2022/04/20 13:27:55;;;;;;;4.97;1.90;;;17.70;64.80;;;;;;5038213;28;20057;-75
2022/04/20 13:30:38;;;;;;;3.50;2.17;;;17.90;65.30;;;;;;5038125;28;20056;-76
2022/04/20 13:33:13;;;;;;;5.28;2.38;;;17.90;66.00;;;;;;5037922;28;20049;-74
2022/04/20 13:35:41;;;;;;;4.90;2.88;;;17.80;66.10;;;;;;5037937;28;20065;-75
2022/04/20 13:38:07;;;;;;;4.20;2.65;;;17.70;65.80;;;;;;5037864;28;20076;-74
2022/04/20 13:40:36;;;;;;;4.63;2.63;;;17.50;65.80;;;;;;5037577;28;20150;-74